Time;durP1;ratioP1;P1;durP2;ratioP2;P2;SDS_P1;SDS_P2;PMS_P1;PMS_P2;Temp;Humidity;BMP_temperature;BMP_pressure;BME280_temperature;BME280_humidity;BME280_pressure;Samples;Min_cycle;Max_cycle;Signal;HPM_P1;HPM_P2
2021/05/27 00:00:38;;;;;;;13.98;4.00;;;;;;;13.71;73.14;101207.49;1775376;80;20616;-58
2021/05/27 00:03:11;;;;;;;12.93;3.40;;;;;;;13.63;73.11;101205.19;1767208;80;21382;-58
2021/05/27 00:05:44;;;;;;;10.57;3.47;;;;;;;13.58;73.14;101205.59;1776345;80;21271;-58
2021/05/27 00:08:17;;;;;;;8.20;3.00;;;;;;;13.53;73.25;101206.94;1777507;80;21456;-59
2021/05/27 00:10:50;;;;;;;6.43;3.30;;;;;;;13.50;73.23;101208.88;1775166;80;21161;-58
2021/05/27 00:13:23;;;;;;;13.90;3.30;;;;;;;13.46;73.16;101209.27;1762254;80;21165;-59
2021/05/27 00:15:56;;;;;;;7.37;2.37;;;;;;;13.43;73.13;101206.42;1771928;80;21537;-58
2021/05/27 00:18:30;;;;;;;6.70;2.75;;;;;;;13.38;73.07;101207.77;1773379;80;21687;-58
2021/05/27 00:21:05;;;;;;;4.83;2.42;;;;;;;13.32;73.11;101210.45;1772595;80;21556;-58
2021/05/27 00:23:38;;;;;;;9.93;2.80;;;;;;;13.29;73.00;101208.08;1764961;80;21219;-58
2021/05/27 00:26:11;;;;;;;7.87;2.83;;;;;;;13.25;73.02;101203.22;1780304;80;21276;-58
2021/05/27 00:28:45;;;;;;;17.77;2.85;;;;;;;13.23;73.04;101203.83;1776680;80;21268;-58
2021/05/27 00:31:18;;;;;;;10.07;2.60;;;;;;;13.18;73.10;101200.25;1774971;80;21213;-59
2021/05/27 00:33:51;;;;;;;14.75;2.60;;;;;;;13.14;73.17;101201.95;1765034;80;21260;-58
2021/05/27 00:36:24;;;;;;;11.20;2.47;;;;;;;13.10;73.19;101210.59;1777223;80;21311;-58
2021/05/27 00:38:57;;;;;;;10.65;2.40;;;;;;;13.07;73.27;101212.16;1782022;80;21259;-58
2021/05/27 00:41:30;;;;;;;8.70;2.13;;;;;;;13.06;73.31;101207.05;1777676;80;21276;-58
2021/05/27 00:44:03;;;;;;;10.53;2.43;;;;;;;13.04;73.33;101204.49;1774666;80;21188;-58
2021/05/27 00:46:36;;;;;;;9.78;2.67;;;;;;;13.02;73.27;101209.05;1746921;80;21298;-58
2021/05/27 00:49:10;;;;;;;6.45;3.08;;;;;;;12.99;73.21;101215.06;1771858;80;21716;-58
2021/05/27 00:51:45;;;;;;;6.70;2.67;;;;;;;12.93;73.30;101214.24;1773496;80;21265;-58
2021/05/27 00:54:19;;;;;;;12.30;3.15;;;;;;;12.90;73.49;101209.27;1766924;80;21300;-58
2021/05/27 00:56:51;;;;;;;;;;;;;;;12.88;73.72;101213.31;1786456;80;21263;-58
2021/05/27 00:59:24;;;;;;;7.85;3.40;;;;;;;12.87;73.79;101219.55;1772100;80;20263;-58
2021/05/27 01:01:57;;;;;;;10.20;3.15;;;;;;;12.82;73.96;101213.33;1760653;80;21280;-59
2021/05/27 01:04:30;;;;;;;11.33;3.90;;;;;;;12.82;74.10;101216.46;1761744;80;21244;-58
2021/05/27 01:07:04;;;;;;;15.18;4.03;;;;;;;12.82;74.27;101215.95;1773694;80;21738;-59
2021/05/27 01:09:37;;;;;;;12.75;3.45;;;;;;;12.81;74.34;101216.94;1773283;80;21216;-59
2021/05/27 01:12:12;;;;;;;15.48;4.53;;;;;;;12.80;74.41;101220.52;1774700;80;21156;-59
2021/05/27 01:17:39;;;;;;;15.05;3.15;;;;;;;12.77;74.44;101223.42;1646933;86;21748;-58
2021/05/27 01:20:13;;;;;;;16.48;3.70;;;;;;;12.75;74.45;101222.69;1735142;80;21788;-58
2021/05/27 01:22:46;;;;;;;11.00;3.40;;;;;;;12.73;74.40;101220.67;1775962;80;21283;-58
2021/05/27 01:25:19;;;;;;;15.35;3.22;;;;;;;12.72;74.46;101220.33;1773197;80;21311;-58
2021/05/27 01:27:53;;;;;;;;;;;;;;;12.71;74.44;101218.66;1775241;80;21814;-58
2021/05/27 01:30:26;;;;;;;10.70;2.80;;;;;;;12.71;74.41;101213.88;1770951;80;20354;-59
2021/05/27 01:32:59;;;;;;;9.28;2.72;;;;;;;12.67;74.40;101217.24;1773536;80;21173;-58
2021/05/27 01:35:32;;;;;;;10.53;2.90;;;;;;;12.66;74.36;101219.50;1775079;80;21789;-58
2021/05/27 01:38:19;;;;;;;15.18;2.70;;;;;;;12.66;74.37;101225.23;1779834;80;21318;-58
2021/05/27 01:40:54;;;;;;;4.97;2.27;;;;;;;12.66;74.37;101222.61;1768783;80;21711;-59
2021/05/27 01:43:27;;;;;;;10.03;2.75;;;;;;;12.69;74.49;101221.05;1776454;80;21160;-59
2021/05/27 01:46:01;;;;;;;9.00;2.62;;;;;;;12.74;74.44;101226.77;1778307;80;21271;-58
2021/05/27 01:48:34;;;;;;;8.35;2.87;;;;;;;12.77;74.45;101224.73;1777145;80;21181;-58
2021/05/27 01:51:11;;;;;;;9.85;2.92;;;;;;;12.81;74.46;101220.88;1771454;80;21176;-58
2021/05/27 01:53:46;;;;;;;7.90;2.70;;;;;;;12.86;74.35;101225.75;1775707;80;21327;-58
2021/05/27 01:56:19;;;;;;;5.28;2.62;;;;;;;12.89;74.27;101228.13;1745112;80;21271;-58
2021/05/27 01:58:53;;;;;;;9.83;2.70;;;;;;;12.90;74.14;101227.16;1779351;80;21179;-59
2021/05/27 02:01:26;;;;;;;14.30;2.50;;;;;;;12.90;74.12;101223.21;1746967;80;21168;-59
2021/05/27 02:04:01;;;;;;;4.87;1.90;;;;;;;12.92;74.04;101222.59;1768482;80;21339;-59
2021/05/27 02:06:34;;;;;;;7.42;2.30;;;;;;;12.93;74.01;101224.28;1759757;80;21358;-58
2021/05/27 02:09:11;;;;;;;6.15;2.37;;;;;;;12.97;74.01;101221.73;1777760;80;21260;-58
2021/05/27 02:11:53;;;;;;;9.43;2.55;;;;;;;13.02;74.05;101223.50;1780394;80;21171;-59
2021/05/27 02:14:27;;;;;;;8.08;2.60;;;;;;;13.08;74.00;101225.67;1774521;80;21154;-59
2021/05/27 02:17:01;;;;;;;5.75;2.47;;;;;;;13.15;73.95;101223.35;1777522;80;21144;-59
2021/05/27 02:19:35;;;;;;;;;;;;;;;13.24;73.80;101223.41;1780668;80;22119;-59
2021/05/27 02:22:08;;;;;;;10.98;2.60;;;;;;;13.35;73.60;101225.95;1780739;80;20167;-58
2021/05/27 02:24:49;;;;;;;9.70;2.70;;;;;;;13.45;73.38;101226.84;1779343;80;21252;-58
2021/05/27 02:27:23;;;;;;;4.83;2.60;;;;;;;13.62;73.01;101225.39;1778206;80;21322;-58
2021/05/27 02:29:56;;;;;;;10.63;2.72;;;;;;;13.80;72.64;101230.88;1773731;80;21799;-58
2021/05/27 02:32:32;;;;;;;7.90;2.80;;;;;;;13.99;72.29;101227.84;1775835;80;21138;-58
2021/05/27 02:35:06;;;;;;;16.00;3.12;;;;;;;14.21;71.75;101223.31;1774223;80;21366;-59
2021/05/27 02:37:39;;;;;;;8.50;3.20;;;;;;;14.44;71.14;101227.39;1768724;80;21152;-59
2021/05/27 02:40:15;;;;;;;12.30;3.55;;;;;;;14.65;70.47;101227.61;1781923;80;21160;-60
2021/05/27 02:42:47;;;;;;;;;;;;;;;14.85;69.83;101218.70;1778297;80;21831;-59
2021/05/27 02:45:22;;;;;;;11.83;3.35;;;;;;;15.07;69.30;101219.41;1757887;80;20239;-59
2021/05/27 02:47:55;;;;;;;8.15;3.75;;;;;;;15.23;68.78;101214.36;1771601;80;21281;-59
2021/05/27 02:50:30;;;;;;;11.55;4.17;;;;;;;15.41;68.11;101220.55;1773050;80;21314;-59
2021/05/27 02:53:05;;;;;;;12.20;4.60;;;;;;;15.57;67.42;101222.11;1776878;80;21140;-59
2021/05/27 02:55:39;;;;;;;12.30;4.37;;;;;;;15.73;66.97;101225.47;1779921;80;21810;-60
2021/05/27 02:58:13;;;;;;;9.35;3.50;;;;;;;15.90;66.43;101226.86;1744407;80;21326;-59
2021/05/27 03:00:46;;;;;;;5.23;3.20;;;;;;;16.08;65.93;101222.92;1750119;80;21818;-60
2021/05/27 03:03:29;;;;;;;5.37;2.80;;;;;;;16.27;65.30;101227.25;1708862;82;21413;-60
2021/05/27 03:06:02;;;;;;;7.60;2.80;;;;;;;16.47;64.56;101227.47;1725490;81;21872;-60
2021/05/27 03:08:43;;;;;;;6.97;2.52;;;;;;;16.66;63.89;101224.22;1757213;80;21190;-60
2021/05/27 03:11:16;;;;;;;5.47;2.42;;;;;;;16.87;63.23;101225.70;1711916;82;21340;-60
2021/05/27 03:13:50;;;;;;;;;;;;;;;17.07;62.69;101230.67;1719387;81;22055;-61
2021/05/27 03:16:24;;;;;;;6.25;2.27;;;;;;;17.31;62.20;101228.69;1718993;81;20197;-57
2021/05/27 03:18:58;;;;;;;6.58;2.52;;;;;;;17.57;61.69;101228.70;1739341;80;21294;-57
2021/05/27 03:21:34;;;;;;;7.87;2.40;;;;;;;17.82;60.68;101233.95;1774334;78;21188;-58
2021/05/27 03:24:08;;;;;;;6.58;2.83;;;;;;;18.06;60.16;101232.72;1779406;78;21212;-57
2021/05/27 03:26:42;;;;;;;4.83;2.27;;;;;;;18.37;59.46;101233.45;1798880;79;21260;-58
2021/05/27 03:29:17;;;;;;;8.73;2.52;;;;;;;18.72;58.80;101239.86;1776211;79;21247;-58
2021/05/27 03:31:50;;;;;;;5.17;2.37;;;;;;;19.10;57.68;101232.56;1796525;78;21334;-58
2021/05/27 03:34:23;;;;;;;4.95;2.20;;;;;;;19.54;56.43;101222.36;1777463;79;21779;-58
2021/05/27 03:36:57;;;;;;;6.05;2.22;;;;;;;20.01;54.89;101229.81;1787129;79;21120;-58
2021/05/27 03:39:31;;;;;;;9.73;2.77;;;;;;;20.50;53.53;101236.22;1794274;79;21833;-58
2021/05/27 03:42:07;;;;;;;5.55;2.35;;;;;;;20.98;52.11;101235.86;1799448;79;21846;-59
2021/05/27 03:44:41;;;;;;;7.78;2.20;;;;;;;21.50;50.79;101227.88;1778254;79;21258;-58
2021/05/27 03:47:14;;;;;;;;;;;;;;;22.06;49.50;101231.73;1792139;79;21318;-58
2021/05/27 03:49:47;;;;;;;4.17;1.95;;;;;;;22.60;48.33;101234.78;1795153;79;20228;-59
2021/05/27 03:52:20;;;;;;;7.10;2.30;;;;;;;23.08;47.49;101232.69;1808317;79;21173;-57
2021/05/27 03:54:54;;;;;;;6.40;1.80;;;;;;;23.71;46.15;101230.88;1782234;79;21786;-58
2021/05/27 03:57:27;;;;;;;4.00;1.90;;;;;;;24.32;44.45;101231.75;1782404;79;21209;-57
2021/05/27 04:02:58;;;;;;;5.08;2.08;;;;;;;25.98;40.68;101225.89;1770578;80;21252;-59
2021/05/27 04:08:25;;;;;;;7.12;1.92;;;;;;;26.54;39.60;101234.61;1765301;79;21988;-60
2021/05/27 04:10:58;;;;;;;6.08;1.90;;;;;;;27.41;37.16;101217.61;1780819;79;22106;-60
2021/05/27 04:13:33;;;;;;;7.30;2.05;;;;;;;27.41;37.16;101217.61;1798123;79;21319;-57
2021/05/27 04:16:06;;;;;;;;;;;;;;;27.79;36.92;101216.86;1773579;80;21161;-58
2021/05/27 04:18:38;;;;;;;8.40;2.90;;;;;;;28.15;36.31;101218.19;1775681;79;20284;-59
2021/05/27 04:21:12;;;;;;;7.03;2.80;;;;;;;28.48;35.59;101215.84;1777105;79;21272;-58
2021/05/27 04:23:46;;;;;;;6.25;1.77;;;;;;;28.90;35.13;101220.69;1783181;79;21283;-58
2021/05/27 04:26:19;;;;;;;8.18;2.00;;;;;;;29.30;34.11;101216.83;1774133;80;21339;-57
2021/05/27 04:28:53;;;;;;;11.80;2.00;;;;;;;29.66;32.77;101216.55;1768068;80;21169;-58
2021/05/27 04:31:27;;;;;;;4.47;1.60;;;;;;;30.02;32.11;101213.23;1747895;80;21149;-58
2021/05/27 04:34:00;;;;;;;5.53;1.45;;;;;;;30.37;31.12;101211.22;1738939;81;21711;-58
2021/05/27 04:36:34;;;;;;;6.03;1.90;;;;;;;30.73;30.30;101209.95;1744940;81;21267;-59
2021/05/27 04:39:07;;;;;;;7.00;1.92;;;;;;;31.13;29.45;101215.49;1761882;81;21169;-58
2021/05/27 04:41:42;;;;;;;2.17;1.37;;;;;;;31.53;29.04;101210.37;1762583;81;21300;-57
2021/05/27 04:44:15;;;;;;;5.47;1.70;;;;;;;31.82;28.01;101209.13;1762863;80;21247;-59
2021/05/27 04:46:48;;;;;;;5.70;1.80;;;;;;;32.19;28.09;101203.88;1762602;81;21323;-59
2021/05/27 04:49:20;;;;;;;;;;;;;;;32.54;27.77;101202.36;1766402;81;22185;-60
2021/05/27 04:51:56;;;;;;;6.67;1.82;;;;;;;32.82;27.30;101201.75;1764380;80;21242;-58
2021/05/27 04:54:29;;;;;;;4.33;1.80;;;;;;;33.18;26.44;101207.73;1751718;80;21249;-59
2021/05/27 04:57:02;;;;;;;5.20;1.82;;;;;;;33.58;25.54;101204.47;1759690;80;21358;-60
2021/05/27 04:59:35;;;;;;;5.03;1.62;;;;;;;33.88;25.07;101199.13;1759597;79;21370;-64
2021/05/27 05:02:08;;;;;;;4.33;1.65;;;;;;;34.12;25.17;101207.64;1755199;81;21199;-64
2021/05/27 05:04:42;;;;;;;5.10;1.80;;;;;;;34.41;24.83;101203.34;1738622;81;21195;-61
2021/05/27 05:07:15;;;;;;;6.62;1.90;;;;;;;34.79;24.28;101206.09;1749137;80;21298;-59
2021/05/27 05:09:49;;;;;;;6.92;1.50;;;;;;;35.09;24.21;101204.71;1753453;81;21990;-57
2021/05/27 05:12:22;;;;;;;5.90;1.37;;;;;;;35.47;23.69;101207.36;1751705;80;21313;-56
2021/05/27 05:14:56;;;;;;;5.17;3.33;;;;;;;35.83;23.26;101203.38;1739102;81;21469;-60
2021/05/27 05:17:29;;;;;;;6.05;1.70;;;;;;;36.14;22.80;101199.96;1759117;80;21315;-59
2021/05/27 05:20:04;;;;;;;3.70;1.25;;;;;;;36.46;22.44;101198.41;1757342;80;21173;-60
2021/05/27 05:22:37;;;;;;;4.62;1.40;;;;;;;36.72;22.08;101196.81;1752295;80;22029;-61
2021/05/27 05:25:11;;;;;;;2.27;1.17;;;;;;;36.99;21.75;101189.77;1752701;81;21986;-61
2021/05/27 05:27:46;;;;;;;9.75;1.60;;;;;;;37.34;21.61;101193.19;1759007;80;21471;-63
2021/05/27 05:30:20;;;;;;;8.25;1.82;;;;;;;37.56;21.46;101190.78;1740804;81;21200;-60
2021/05/27 05:32:55;;;;;;;6.65;2.40;;;;;;;37.72;21.00;101188.91;1752562;80;21252;-60
2021/05/27 05:35:28;;;;;;;8.40;1.72;;;;;;;37.73;20.90;101182.36;1748153;81;22132;-63
2021/05/27 05:38:01;;;;;;;5.80;1.30;;;;;;;37.78;21.04;101183.63;1764290;80;21609;-67
2021/05/27 05:40:34;;;;;;;4.75;1.35;;;;;;;37.83;21.06;101181.95;1769299;81;21208;-60
2021/05/27 05:43:08;;;;;;;5.50;1.20;;;;;;;37.91;21.25;101182.66;1762923;81;21315;-62
2021/05/27 05:45:41;;;;;;;6.33;1.32;;;;;;;38.07;21.04;101179.41;1766232;80;21299;-59
2021/05/27 05:48:14;;;;;;;3.12;1.15;;;;;;;38.33;20.93;101175.20;1759955;80;21255;-64
2021/05/27 05:50:52;;;;;;;6.67;1.20;;;;;;;38.58;20.36;101174.52;1741145;81;21247;-71
2021/05/27 05:53:25;;;;;;;11.50;2.12;;;;;;;38.78;20.00;101178.31;1746089;80;22104;-68
2021/05/27 05:56:00;;;;;;;6.08;1.42;;;;;;;38.89;19.79;101177.81;1744389;81;21302;-64
2021/05/27 05:58:34;;;;;;;6.53;1.52;;;;;;;39.02;20.10;101177.59;1749019;80;21306;-64
2021/05/27 06:01:07;;;;;;;2.15;1.00;;;;;;;39.15;19.89;101176.77;1751619;81;21990;-65
2021/05/27 06:03:41;;;;;;;7.45;1.35;;;;;;;39.31;19.92;101171.28;1763564;80;21341;-65
2021/05/27 06:06:32;;;;;;;10.00;1.67;;;;;;;39.52;19.84;101172.48;1746549;80;22032;-66
2021/05/27 06:09:07;;;;;;;4.20;0.95;;;;;;;39.70;19.46;101171.55;1764784;81;21869;-64
2021/05/27 06:11:41;;;;;;;5.67;1.60;;;;;;;39.87;18.73;101168.16;1756542;80;21686;-66
2021/05/27 06:14:14;;;;;;;3.72;1.20;;;;;;;40.03;17.91;101159.06;1753863;81;21721;-64
2021/05/27 06:16:49;;;;;;;5.90;1.10;;;;;;;40.24;18.49;101162.37;1730213;81;21180;-66
2021/05/27 06:19:22;;;;;;;3.87;1.25;;;;;;;40.43;18.37;101151.75;1750969;81;21332;-63
2021/05/27 06:22:00;;;;;;;3.05;1.20;;;;;;;40.63;18.03;101151.27;1747252;81;21319;-70
2021/05/27 06:24:38;;;;;;;4.47;1.10;;;;;;;40.67;18.07;101146.75;1730689;81;21327;-69
2021/05/27 06:27:11;;;;;;;1.62;0.80;;;;;;;40.77;17.46;101153.35;1769812;80;21708;-72
2021/05/27 06:29:44;;;;;;;3.17;1.02;;;;;;;40.81;17.25;101152.41;1760025;81;21199;-73
2021/05/27 06:32:17;;;;;;;2.77;1.25;;;;;;;40.86;17.46;101150.92;1713148;82;21302;-67
2021/05/27 06:34:52;;;;;;;6.10;1.20;;;;;;;40.93;17.52;101150.45;1764620;80;21196;-65
2021/05/27 06:37:25;;;;;;;4.08;1.15;;;;;;;41.06;17.48;101137.16;1760780;80;22032;-66
2021/05/27 06:39:59;;;;;;;7.45;1.10;;;;;;;41.37;17.01;101141.23;1754132;81;22245;-69
2021/05/27 06:42:32;;;;;;;3.05;1.00;;;;;;;41.62;16.85;101129.48;1760117;80;21209;-65
2021/05/27 06:45:06;;;;;;;10.32;1.35;;;;;;;41.84;16.40;101129.92;1755302;80;21437;-64
2021/05/27 06:47:40;;;;;;;5.12;2.47;;;;;;;42.14;15.64;101128.39;1776731;80;21243;-65
2021/05/27 06:50:15;;;;;;;2.70;1.20;;;;;;;42.42;14.84;101120.54;1771642;80;21319;-72
2021/05/27 06:52:48;;;;;;;2.12;1.02;;;;;;;42.62;14.22;101121.25;1763891;80;21350;-62
2021/05/27 06:55:21;;;;;;;4.45;1.10;;;;;;;42.83;13.96;101122.69;1742887;81;21327;-70
2021/05/27 06:57:55;;;;;;;5.00;0.85;;;;;;;42.82;13.76;101119.16;1742826;81;21376;-64
2021/05/27 07:00:28;;;;;;;4.55;1.00;;;;;;;42.67;13.70;101121.08;1769034;80;22091;-62
2021/05/27 07:03:04;;;;;;;2.85;0.72;;;;;;;42.60;12.86;101118.02;1735334;81;21482;-65
2021/05/27 07:05:37;;;;;;;1.50;0.70;;;;;;;42.26;12.23;101118.89;1761766;81;21355;-60
2021/05/27 07:08:10;;;;;;;3.17;0.80;;;;;;;42.05;12.22;101118.50;1764689;80;21326;-63
2021/05/27 07:10:44;;;;;;;1.17;0.60;;;;;;;41.81;12.45;101117.63;1754069;80;21252;-64
2021/05/27 07:13:18;;;;;;;2.85;0.70;;;;;;;41.58;12.32;101116.14;1763672;81;22012;-66
2021/05/27 07:15:52;;;;;;;1.42;0.60;;;;;;;41.40;12.01;101122.17;1729883;81;21213;-62
2021/05/27 07:18:25;;;;;;;1.12;0.60;;;;;;;41.35;12.39;101116.83;1762825;80;21316;-65
2021/05/27 07:20:59;;;;;;;4.40;0.85;;;;;;;41.54;12.30;101115.96;1768099;81;22188;-70
2021/05/27 07:23:32;;;;;;;1.25;0.68;;;;;;;41.68;11.98;101105.39;1750783;80;21204;-68
2021/05/27 07:26:06;;;;;;;3.12;0.80;;;;;;;41.78;12.09;101106.45;1764789;80;21547;-63
2021/05/27 07:28:39;;;;;;;2.55;0.80;;;;;;;41.71;11.95;101103.38;1765704;80;21992;-67
2021/05/27 07:31:13;;;;;;;2.50;0.88;;;;;;;41.50;12.07;101102.63;1765014;80;21311;-62
2021/05/27 07:33:46;;;;;;;3.08;0.70;;;;;;;41.42;12.02;101108.09;1757930;80;21494;-60
2021/05/27 07:36:20;;;;;;;2.50;0.70;;;;;;;41.42;11.59;101110.84;1756690;80;21246;-64
2021/05/27 07:38:54;;;;;;;1.72;0.60;;;;;;;41.13;11.33;101105.91;1749257;81;21322;-59
2021/05/27 07:41:27;;;;;;;11.03;1.47;;;;;;;40.68;11.57;101105.80;1750864;80;22286;-65
2021/05/27 07:44:01;;;;;;;2.92;0.60;;;;;;;40.31;11.97;101103.75;1745938;81;21314;-63
2021/05/27 07:46:34;;;;;;;1.90;0.50;;;;;;;40.23;12.07;101104.50;1755160;80;21597;-66
2021/05/27 07:49:07;;;;;;;3.83;1.05;;;;;;;40.33;12.21;101100.69;1758838;81;21323;-59
2021/05/27 07:51:40;;;;;;;0.93;0.50;;;;;;;40.49;11.61;101104.67;1747229;80;21306;-60
2021/05/27 07:54:13;;;;;;;2.55;0.50;;;;;;;40.36;12.34;101105.55;1756228;81;21235;-65
2021/05/27 07:56:47;;;;;;;22.98;2.42;;;;;;;40.31;12.08;101092.78;1765377;80;21176;-62
2021/05/27 07:59:21;;;;;;;2.52;0.88;;;;;;;40.50;12.24;101093.95;1757284;81;21326;-60
2021/05/27 08:01:54;;;;;;;2.77;1.00;;;;;;;40.56;11.81;101095.42;1762506;80;21366;-60
2021/05/27 08:04:27;;;;;;;1.42;0.50;;;;;;;40.24;12.05;101095.16;1746870;80;21314;-61
2021/05/27 08:07:01;;;;;;;1.90;0.72;;;;;;;40.02;11.94;101085.56;1765417;81;21194;-65
2021/05/27 08:09:34;;;;;;;0.90;0.42;;;;;;;39.96;11.90;101084.02;1755676;80;21201;-59
2021/05/27 08:12:08;;;;;;;5.50;0.60;;;;;;;39.67;12.01;101091.30;1766283;80;21342;-58
2021/05/27 08:14:42;;;;;;;4.15;0.90;;;;;;;39.21;12.24;101095.34;1764814;80;21252;-58
2021/05/27 08:17:15;;;;;;;5.92;2.17;;;;;;;39.02;12.63;101094.06;1770631;80;21564;-59
2021/05/27 08:19:49;;;;;;;3.22;2.90;;;;;;;38.97;12.74;101095.53;1745847;80;21208;-63
2021/05/27 08:22:23;;;;;;;6.83;1.00;;;;;;;38.96;12.99;101095.27;1761660;80;21640;-61
2021/05/27 08:24:58;;;;;;;7.78;1.25;;;;;;;38.99;12.45;101089.19;1768407;80;21216;-60
2021/05/27 08:27:32;;;;;;;20.12;8.35;;;;;;;38.95;12.45;101084.08;1753627;80;21314;-62
2021/05/27 08:30:07;;;;;;;1.75;1.30;;;;;;;38.77;12.99;101083.61;1751139;81;21713;-61
2021/05/27 08:32:39;;;;;;;2.55;0.72;;;;;;;38.63;12.96;101080.84;1746783;81;22053;-63
2021/05/27 08:35:14;;;;;;;2.00;0.70;;;;;;;38.64;13.25;101083.84;1769139;80;21602;-61
2021/05/27 08:37:48;;;;;;;2.67;0.60;;;;;;;38.54;13.21;101083.20;1765407;80;21217;-66
2021/05/27 08:40:22;;;;;;;3.80;1.00;;;;;;;38.39;13.26;101076.91;1767972;80;21317;-69
2021/05/27 08:42:58;;;;;;;2.15;0.80;;;;;;;38.42;13.22;101074.13;1755608;81;21181;-59
2021/05/27 08:45:37;;;;;;;1.07;0.50;;;;;;;38.57;13.38;101077.14;1757945;80;21362;-63
2021/05/27 08:48:15;;;;;;;2.52;0.70;;;;;;;38.69;12.87;101068.70;1740429;80;21354;-63
2021/05/27 08:50:51;;;;;;;6.30;0.85;;;;;;;38.62;13.03;101073.73;1736560;81;21189;-67
2021/05/27 08:53:24;;;;;;;17.05;11.22;;;;;;;38.54;12.92;101073.63;1736231;81;21181;-62
2021/05/27 08:56:01;;;;;;;2.85;1.30;;;;;;;38.29;13.24;101076.27;1748281;81;21471;-67
2021/05/27 08:58:34;;;;;;;1.77;0.90;;;;;;;38.03;13.64;101077.23;1749122;81;21197;-63
2021/05/27 09:01:08;;;;;;;4.35;0.95;;;;;;;37.79;13.59;101069.66;1761561;81;21212;-64
2021/05/27 09:03:44;;;;;;;7.83;0.70;;;;;;;37.26;13.75;101079.16;1768655;80;21363;-64
2021/05/27 09:06:18;;;;;;;1.65;0.82;;;;;;;36.65;14.02;101077.66;1763424;80;21620;-65
2021/05/27 09:09:07;;;;;;;2.25;0.70;;;;;;;36.22;14.44;101084.31;1758591;81;21327;-62
2021/05/27 09:11:45;;;;;;;1.32;0.60;;;;;;;35.68;14.93;101074.88;1765326;80;21883;-61
2021/05/27 09:14:18;;;;;;;3.47;0.93;;;;;;;35.33;15.82;101072.33;1767405;80;21623;-63
2021/05/27 09:16:58;;;;;;;4.42;0.65;;;;;;;35.33;15.57;101070.97;1757541;80;22080;-62
2021/05/27 09:19:32;;;;;;;1.95;0.72;;;;;;;35.38;15.48;101068.22;1743888;81;21977;-66
2021/05/27 09:22:21;;;;;;;2.80;0.75;;;;;;;35.31;15.40;101067.72;1750927;80;21217;-64
2021/05/27 09:24:54;;;;;;;2.47;0.75;;;;;;;35.20;15.35;101058.77;1770555;80;21686;-64
2021/05/27 09:27:47;;;;;;;5.67;0.90;;;;;;;35.06;15.96;101057.75;1755491;81;21199;-65
2021/05/27 09:30:23;;;;;;;2.83;0.60;;;;;;;34.66;16.27;101061.12;1753505;80;21294;-65
2021/05/27 09:32:58;;;;;;;2.50;0.82;;;;;;;34.17;17.12;101062.26;1754189;80;21303;-64
2021/05/27 09:35:33;;;;;;;8.60;1.17;;;;;;;33.62;17.50;101050.78;1752919;81;21323;-64
2021/05/27 09:38:06;;;;;;;3.10;0.70;;;;;;;33.19;18.15;101051.45;1749306;80;21210;-65
2021/05/27 09:40:46;;;;;;;2.35;0.90;;;;;;;32.84;18.64;101055.31;1758012;81;21609;-63
2021/05/27 09:43:26;;;;;;;4.28;0.80;;;;;;;32.38;18.53;101066.94;1762503;81;21211;-63
2021/05/27 09:46:08;;;;;;;2.40;0.65;;;;;;;31.76;18.42;101066.11;1727659;82;21268;-64
2021/05/27 09:48:43;;;;;;;3.45;0.75;;;;;;;31.11;18.59;101052.63;1726671;81;21207;-60
2021/05/27 09:51:28;;;;;;;6.33;0.80;;;;;;;30.77;19.39;101037.55;1763525;80;21294;-66
2021/05/27 09:54:01;;;;;;;9.15;0.93;;;;;;;30.72;20.01;101054.22;1741535;81;21273;-68
2021/05/27 09:56:38;;;;;;;3.02;0.72;;;;;;;30.60;20.17;101052.45;1756830;80;21307;-61
2021/05/27 09:59:21;;;;;;;2.10;0.50;;;;;;;30.42;19.60;101058.13;1752686;81;21394;-62
2021/05/27 10:02:13;;;;;;;4.25;0.80;;;;;;;30.23;19.30;101054.02;1767480;80;21347;-64
2021/05/27 10:05:03;;;;;;;9.08;1.42;;;;;;;30.09;19.76;101056.76;1738913;81;21350;-62
2021/05/27 10:07:51;;;;;;;3.50;0.65;;;;;;;29.88;20.16;101052.05;1757478;80;21965;-64
2021/05/27 10:10:28;;;;;;;1.35;0.70;;;;;;;29.66;20.39;101048.39;1755693;80;21209;-70
2021/05/27 10:13:01;;;;;;;5.65;0.60;;;;;;;29.63;20.15;101035.38;1768977;80;21359;-65
2021/05/27 10:15:35;;;;;;;2.27;0.57;;;;;;;29.67;20.26;101045.97;1764446;80;21323;-67
2021/05/27 10:18:09;;;;;;;2.50;0.60;;;;;;;29.69;20.44;101045.19;1753616;80;21398;-71
2021/05/27 10:20:42;;;;;;;4.72;0.80;;;;;;;29.71;21.03;101048.49;1743160;81;21479;-63
2021/05/27 10:23:16;;;;;;;2.75;0.60;;;;;;;29.59;20.73;101048.52;1756797;81;21304;-60
2021/05/27 10:25:52;;;;;;;1.65;0.68;;;;;;;29.40;20.99;101034.94;1751089;80;21327;-63
2021/05/27 10:28:27;;;;;;;10.55;3.98;;;;;;;29.36;20.74;101035.14;1764208;81;22137;-63
2021/05/27 10:31:01;;;;;;;4.72;1.15;;;;;;;29.25;21.80;101036.01;1758699;80;21358;-61
2021/05/27 10:33:38;;;;;;;1.32;0.65;;;;;;;29.21;21.15;101034.83;1768645;80;21193;-61
2021/05/27 10:36:13;;;;;;;2.15;0.60;;;;;;;29.20;21.06;101029.98;1753070;81;21335;-65
2021/05/27 10:38:52;;;;;;;2.37;0.70;;;;;;;29.19;21.32;101033.73;1766694;80;21518;-68
2021/05/27 10:41:38;;;;;;;3.47;0.50;;;;;;;29.16;21.40;101035.52;1766424;80;21327;-70
2021/05/27 10:44:15;;;;;;;3.55;0.70;;;;;;;29.14;21.43;101035.47;1761041;80;21554;-67
2021/05/27 10:46:59;;;;;;;2.47;0.85;;;;;;;29.05;21.86;101028.81;1751563;81;22038;-63
2021/05/27 10:49:48;;;;;;;1.77;0.60;;;;;;;28.97;22.62;101027.30;1744667;81;21490;-68
2021/05/27 10:52:34;;;;;;;4.28;0.57;;;;;;;28.78;23.03;101033.11;1753739;81;21666;-69
2021/05/27 10:55:11;;;;;;;9.20;0.80;;;;;;;28.63;22.85;101034.41;1754182;80;21318;-62
2021/05/27 10:57:48;;;;;;;5.47;1.25;;;;;;;28.62;23.04;101034.11;1738294;81;21303;-66
2021/05/27 11:00:37;;;;;;;3.42;0.72;;;;;;;28.61;23.44;101025.72;1762243;80;21307;-69
2021/05/27 11:03:43;;;;;;;3.12;0.68;;;;;;;28.63;23.44;101022.28;1751301;80;21200;-67
2021/05/27 11:06:42;;;;;;;2.58;0.80;;;;;;;28.67;22.94;101018.58;1757146;80;21371;-72
2021/05/27 11:09:25;;;;;;;3.08;0.72;;;;;;;28.61;22.70;101018.19;1754461;80;22082;-67
2021/05/27 11:12:22;;;;;;;2.50;0.70;;;;;;;28.53;23.36;101019.33;1741886;81;21231;-65
2021/05/27 11:15:10;;;;;;;2.35;0.90;;;;;;;28.50;23.92;101018.95;1764695;80;21331;-65
2021/05/27 11:17:44;;;;;;;28.20;1.77;;;;;;;28.41;24.20;101012.30;1762331;80;21607;-63
2021/05/27 11:20:26;;;;;;;6.78;0.82;;;;;;;28.40;25.14;101010.64;1735916;80;21423;-62
2021/05/27 11:23:01;;;;;;;4.25;1.00;;;;;;;28.50;24.92;101002.80;1739302;81;21307;-69
2021/05/27 11:25:36;;;;;;;1.75;0.80;;;;;;;28.61;24.80;100993.94;1745878;81;21298;-63
2021/05/27 11:28:17;;;;;;;2.17;0.62;;;;;;;28.72;23.97;100996.30;1754575;80;21493;-70
2021/05/27 11:30:54;;;;;;;3.27;0.80;;;;;;;28.79;23.27;101007.25;1764563;80;21749;-65
2021/05/27 11:33:32;;;;;;;8.03;1.00;;;;;;;28.79;24.29;101005.08;1751250;80;22011;-66
2021/05/27 11:36:18;;;;;;;3.65;0.60;;;;;;;28.69;25.63;100998.42;1762929;81;21245;-72
2021/05/27 11:38:50;;;;;;;6.50;1.47;;;;;;;28.57;25.11;100996.23;1739741;80;22125;-70
2021/05/27 11:41:23;;;;;;;3.58;0.93;;;;;;;28.36;25.35;100991.45;1766887;80;21284;-71
2021/05/27 11:43:57;;;;;;;;;;;;;;;28.17;25.66;101002.56;1747879;81;21294;-70
2021/05/27 11:46:30;;;;;;;5.83;0.60;;;;;;;28.00;25.67;101005.95;1757362;80;20272;-64
2021/05/27 11:49:05;;;;;;;10.23;0.95;;;;;;;27.89;25.52;100995.14;1750952;80;21319;-69
2021/05/27 11:51:39;;;;;;;1.30;0.60;;;;;;;27.79;25.73;101002.43;1767107;80;21581;-68
2021/05/27 11:54:15;;;;;;;4.10;0.80;;;;;;;27.65;26.05;101000.16;1754438;81;21311;-67
2021/05/27 11:56:50;;;;;;;3.60;0.72;;;;;;;27.48;25.62;100989.23;1749344;80;21583;-68
2021/05/27 11:59:26;;;;;;;6.47;1.05;;;;;;;27.41;26.04;100991.20;1753729;80;22121;-69
2021/05/27 12:02:03;;;;;;;2.22;0.70;;;;;;;27.35;26.35;100982.13;1757563;80;21322;-71
2021/05/27 12:04:37;;;;;;;2.17;0.93;;;;;;;27.34;26.05;100985.06;1741293;80;21232;-69
2021/05/27 12:07:13;;;;;;;1.65;0.88;;;;;;;27.34;26.48;100976.48;1753065;81;21322;-65
2021/05/27 12:09:48;;;;;;;2.22;0.78;;;;;;;27.42;26.98;100986.10;1763944;80;21319;-68
2021/05/27 12:12:29;;;;;;;3.00;0.70;;;;;;;27.44;26.79;100979.17;1749692;80;21367;-61